Time;durP1;ratioP1;P1;durP2;ratioP2;P2;SDS_P1;SDS_P2;PMS_P1;PMS_P2;Temp;Humidity;BMP_temperature;BMP_pressure;BME280_temperature;BME280_humidity;BME280_pressure;Samples;Min_cycle;Max_cycle;Signal;HPM_P1;HPM_P2
2021/08/06 00:04:01;;;;;;;3.70;2.97;;;;;;;18.28;93.65;99386.43;713722;1203;114052;-75
2021/08/06 00:19:12;;;;;;;3.83;2.50;;;;;;;18.17;94.56;99381.74;713774;1202;114005;-73
2021/08/06 00:34:14;;;;;;;3.50;2.43;;;;;;;18.12;94.84;99366.45;714250;1197;114164;-73
2021/08/06 00:49:17;;;;;;;11.88;5.80;;;;;;;17.95;96.52;99354.66;714034;1203;114496;-74
2021/08/06 01:04:26;;;;;;;4.17;2.17;;;;;;;17.86;97.72;99346.05;714033;1200;114425;-74
2021/08/06 01:19:49;;;;;;;3.70;2.15;;;;;;;17.84;98.76;99334.02;714041;1200;114400;-74
2021/08/06 01:34:51;;;;;;;5.88;1.93;;;;;;;17.78;98.83;99323.20;714142;1202;113725;-74
2021/08/06 01:50:07;;;;;;;3.53;2.30;;;;;;;17.74;99.43;99306.07;713919;1202;114140;-74
2021/08/06 02:05:10;;;;;;;3.90;2.20;;;;;;;17.75;99.76;99298.92;714160;1179;114115;-74
2021/08/06 02:20:14;;;;;;;3.65;1.83;;;;;;;17.67;100.00;99264.66;714079;1177;113630;-74
2021/08/06 02:35:16;;;;;;;2.83;1.90;;;;;;;17.59;100.00;99253.27;714127;1175;113940;-74
2021/08/06 02:50:18;;;;;;;2.33;1.58;;;;;;;17.54;100.00;99247.77;714264;1202;113894;-75
2021/08/06 03:05:20;;;;;;;2.95;1.70;;;;;;;17.51;100.00;99234.09;714891;1200;114593;-73
2021/08/06 03:20:25;;;;;;;3.03;1.37;;;;;;;17.41;100.00;99219.42;714258;1177;113335;-76
2021/08/06 03:35:27;;;;;;;2.00;1.47;;;;;;;17.35;100.00;99206.19;714282;1175;114714;-83
2021/08/06 03:50:30;;;;;;;3.05;1.60;;;;;;;17.29;100.00;99205.17;714602;1200;115089;-84
2021/08/06 04:05:33;;;;;;;2.20;1.30;;;;;;;17.25;100.00;99180.91;714557;1202;114319;-78
2021/08/06 04:20:35;;;;;;;2.70;1.10;;;;;;;17.13;100.00;99180.72;713965;1200;113707;-77
2021/08/06 04:35:37;;;;;;;1.50;1.18;;;;;;;17.00;100.00;99175.43;714247;1200;115377;-77
2021/08/06 04:50:40;;;;;;;2.95;1.60;;;;;;;16.87;100.00;99164.81;714239;1200;115395;-78
2021/08/06 05:05:43;;;;;;;3.50;1.27;;;;;;;16.73;100.00;99161.33;714368;1205;114707;-78
2021/08/06 05:20:46;;;;;;;3.33;1.80;;;;;;;16.63;100.00;99149.30;714115;1202;114395;-78
2021/08/06 05:35:49;;;;;;;2.30;1.80;;;;;;;16.63;100.00;99151.95;714186;1203;113775;-78
2021/08/06 05:50:53;;;;;;;6.90;2.03;;;;;;;16.66;100.00;99136.69;714439;1200;114870;-80
2021/08/06 06:05:55;;;;;;;3.88;1.63;;;;;;;16.44;100.00;99134.20;714484;1201;114958;-81
2021/08/06 06:20:57;;;;;;;3.15;1.50;;;;;;;16.21;100.00;99135.39;714443;1205;114549;-78
2021/08/06 06:36:00;;;;;;;9.78;3.55;;;;;;;15.95;100.00;99118.42;714369;1202;114677;-77
2021/08/06 06:51:02;;;;;;;4.93;1.93;;;;;;;15.94;100.00;99123.91;714314;1202;115738;-78
2021/08/06 07:06:04;;;;;;;2.73;1.80;;;;;;;15.94;100.00;99122.10;714158;1200;114320;-75
2021/08/06 07:21:10;;;;;;;4.20;2.40;;;;;;;16.25;100.00;99122.59;714140;1200;115032;-71
2021/08/06 07:36:13;;;;;;;2.33;1.47;;;;;;;16.12;100.00;99123.36;713784;1200;113863;-71
2021/08/06 07:51:15;;;;;;;4.10;1.60;;;;;;;16.22;100.00;99117.67;713918;1202;114341;-71
2021/08/06 08:06:18;;;;;;;3.50;1.57;;;;;;;16.04;100.00;99113.78;715315;1200;113680;-85
2021/08/06 08:21:20;;;;;;;4.05;1.45;;;;;;;15.78;100.00;99110.02;715766;1199;114570;-84
2021/08/06 08:36:23;;;;;;;2.07;1.70;;;;;;;15.75;100.00;99118.33;715428;1200;114255;-79
2021/08/06 08:51:27;;;;;;;4.30;1.70;;;;;;;15.62;100.00;99102.41;714190;1200;114619;-79
2021/08/06 09:06:44;;;;;;;2.48;1.50;;;;;;;15.67;100.00;99104.48;715390;1200;115163;-78
2021/08/06 09:21:46;;;;;;;3.30;1.57;;;;;;;15.57;100.00;99088.97;713970;1189;113805;-75
2021/08/06 09:36:58;;;;;;;2.73;1.33;;;;;;;15.38;100.00;99088.68;714413;1202;113936;-78
2021/08/06 09:52:03;;;;;;;3.30;1.00;;;;;;;15.19;100.00;99071.73;714547;1201;114398;-75
2021/08/06 10:07:08;;;;;;;2.90;1.10;;;;;;;15.28;100.00;99083.77;714836;1200;114238;-77
2021/08/06 10:22:10;;;;;;;4.10;1.70;;;;;;;15.30;100.00;99071.16;714348;1200;115144;-77
2021/08/06 10:37:47;;;;;;;2.83;1.60;;;;;;;15.37;100.00;99055.34;715219;1200;113818;-78
2021/08/06 10:53:12;;;;;;;2.05;1.28;;;;;;;15.38;100.00;99058.81;714467;1200;114711;-76
2021/08/06 11:08:44;;;;;;;3.58;1.45;;;;;;;15.42;100.00;99065.33;713908;1200;113923;-77
2021/08/06 11:24:00;;;;;;;3.90;1.65;;;;;;;15.52;100.00;99067.59;714427;1202;114620;-76
2021/08/06 11:39:14;;;;;;;3.40;1.78;;;;;;;15.40;100.00;99076.10;715592;1203;114240;-76
2021/08/06 11:54:16;;;;;;;32.33;24.57;;;;;;;15.37;100.00;99065.10;714161;1200;114822;-76
2021/08/06 12:09:20;;;;;;;4.20;1.95;;;;;;;15.46;100.00;99079.78;714111;1200;114274;-75
2021/08/06 12:24:23;;;;;;;4.55;2.48;;;;;;;15.46;100.00;99066.56;714786;1202;114561;-75
2021/08/06 12:39:28;;;;;;;5.75;4.53;;;;;;;15.56;100.00;99068.83;714553;1200;113833;-86
2021/08/06 12:54:44;;;;;;;5.13;3.63;;;;;;;15.70;100.00;99069.70;716845;1177;113684;-87
2021/08/06 13:09:46;;;;;;;3.60;2.35;;;;;;;15.67;100.00;99081.49;715938;1203;113863;-86
2021/08/06 13:24:49;;;;;;;14.23;7.07;;;;;;;15.56;100.00;99085.52;714498;1177;114461;-73
2021/08/06 13:39:52;;;;;;;4.80;2.63;;;;;;;15.50;100.00;99070.44;714062;1188;115617;-74
2021/08/06 13:54:55;;;;;;;5.15;2.98;;;;;;;15.47;100.00;99089.34;714165;1202;115169;-73
2021/08/06 14:09:57;;;;;;;3.83;2.60;;;;;;;15.42;100.00;99087.27;714037;1202;114454;-82
2021/08/06 14:25:00;;;;;;;2.63;1.98;;;;;;;15.36;100.00;99082.80;715904;1202;114611;-81
2021/08/06 14:40:03;;;;;;;5.30;3.95;;;;;;;15.17;100.00;99104.63;715614;1197;114163;-81
2021/08/06 14:55:05;;;;;;;3.70;2.13;;;;;;;15.09;100.00;99103.75;715729;1203;114404;-80
2021/08/06 15:10:08;;;;;;;7.15;3.20;;;;;;;15.10;100.00;99110.67;716229;1176;114633;-79
2021/08/06 15:25:27;;;;;;;6.15;2.53;;;;;;;15.05;100.00;99106.99;716249;1201;114370;-74
2021/08/06 15:40:29;;;;;;;5.95;2.90;;;;;;;15.12;100.00;99115.76;714247;1201;114383;-75
2021/08/06 15:55:31;;;;;;;26.98;13.60;;;;;;;15.14;100.00;99119.03;714155;1200;113699;-77
2021/08/06 16:10:34;;;;;;;18.85;7.00;;;;;;;15.08;100.00;99112.68;714932;1200;114849;-75
2021/08/06 16:25:37;;;;;;;8.78;5.18;;;;;;;15.11;100.00;99107.03;714614;1202;115129;-77
2021/08/06 16:40:40;;;;;;;12.15;5.45;;;;;;;15.19;100.00;99113.16;714827;1189;113653;-76
2021/08/06 16:55:42;;;;;;;10.18;4.28;;;;;;;15.26;100.00;99108.75;715521;1178;113351;-82
2021/08/06 17:10:46;;;;;;;8.35;3.33;;;;;;;15.30;100.00;99108.15;716015;1202;115388;-82
2021/08/06 17:25:49;;;;;;;5.75;3.00;;;;;;;15.28;100.00;99114.63;714646;1200;114092;-77
2021/08/06 17:40:51;;;;;;;7.03;3.40;;;;;;;15.18;100.00;99125.56;714093;1200;113839;-74
2021/08/06 17:55:54;;;;;;;5.30;2.70;;;;;;;15.10;100.00;99123.88;714122;1200;115208;-74
2021/08/06 18:10:56;;;;;;;5.37;3.50;;;;;;;15.10;100.00;99129.16;714273;1177;115040;-73
2021/08/06 18:25:59;;;;;;;110.20;62.20;;;;;;;15.04;100.00;99129.12;714363;1180;113781;-74
2021/08/06 18:41:02;;;;;;;10.83;5.93;;;;;;;15.00;100.00;99133.95;715051;1174;114768;-74
2021/08/06 18:56:08;;;;;;;4.80;2.77;;;;;;;15.01;100.00;99135.59;714549;1200;114052;-73
2021/08/06 19:11:12;;;;;;;4.25;2.70;;;;;;;15.03;100.00;99144.16;714560;1200;113927;-73
2021/08/06 19:26:15;;;;;;;3.77;2.13;;;;;;;15.04;100.00;99151.05;714541;1185;113792;-74
2021/08/06 19:41:17;;;;;;;2.13;1.60;;;;;;;15.01;100.00;99159.36;714528;1203;114709;-73
2021/08/06 19:56:19;;;;;;;2.58;2.03;;;;;;;15.00;100.00;99162.20;714829;1204;113282;-73
2021/08/06 20:11:22;;;;;;;4.15;2.80;;;;;;;14.99;100.00;99161.37;714781;1174;115219;-75
2021/08/06 20:26:24;;;;;;;4.13;1.93;;;;;;;14.93;100.00;99170.08;714743;1175;113308;-73
2021/08/06 20:41:27;;;;;;;4.80;2.03;;;;;;;14.93;100.00;99168.23;715056;1200;114579;-74
2021/08/06 20:56:29;;;;;;;5.65;2.50;;;;;;;14.97;100.00;99181.89;715084;1176;113694;-73
2021/08/06 21:11:31;;;;;;;4.75;2.33;;;;;;;15.00;100.00;99189.42;716469;1200;113818;-72
2021/08/06 21:26:34;;;;;;;4.65;2.60;;;;;;;15.04;100.00;99192.50;715244;1200;117119;-73
2021/08/06 21:41:36;;;;;;;3.15;2.50;;;;;;;15.10;100.00;99183.82;716034;1200;114897;-74
2021/08/06 21:56:38;;;;;;;6.73;2.95;;;;;;;15.11;100.00;99193.36;714942;1183;113992;-74
2021/08/06 22:11:41;;;;;;;3.80;3.00;;;;;;;15.03;100.00;99181.13;714761;1200;114121;-73
2021/08/06 22:26:43;;;;;;;6.58;3.60;;;;;;;15.02;100.00;99182.13;714676;1200;114924;-73
2021/08/06 22:41:45;;;;;;;7.68;5.10;;;;;;;15.09;100.00;99167.14;714822;1180;113341;-74
2021/08/06 22:56:47;;;;;;;10.55;6.18;;;;;;;15.18;100.00;99159.90;714846;1175;113839;-73
2021/08/06 23:11:49;;;;;;;10.40;6.25;;;;;;;15.36;100.00;99158.58;714545;1205;114682;-72
2021/08/06 23:26:51;;;;;;;10.70;5.63;;;;;;;15.54;100.00;99168.66;714719;1200;114400;-73
2021/08/06 23:41:56;;;;;;;7.43;4.50;;;;;;;15.55;100.00;99170.30;714501;1200;113813;-74
2021/08/06 23:56:58;;;;;;;9.80;4.03;;;;;;;15.57;100.00;99177.02;714971;1200;114990;-73
